sensor_id;sensor_type;location;lat;lon;timestamp;P1;durP1;ratioP1;P2;durP2;ratioP2
70228;SDS011;57617;51.988;5.854;2023-07-31T00:01:32;3.38;;;2.08;;
70228;SDS011;57617;51.988;5.854;2023-07-31T00:03:57;3.33;;;2.08;;
70228;SDS011;57617;51.988;5.854;2023-07-31T00:06:22;6.68;;;2.33;;
70228;SDS011;57617;51.988;5.854;2023-07-31T00:08:47;4.40;;;2.60;;
70228;SDS011;57617;51.988;5.854;2023-07-31T00:11:13;3.58;;;2.30;;
70228;SDS011;57617;51.988;5.854;2023-07-31T00:13:38;3.30;;;2.30;;
70228;SDS011;57617;51.988;5.854;2023-07-31T00:16:03;3.60;;;2.45;;
70228;SDS011;57617;51.988;5.854;2023-07-31T00:18:29;4.28;;;2.40;;
70228;SDS011;57617;51.988;5.854;2023-07-31T00:20:54;5.15;;;2.53;;
70228;SDS011;57617;51.988;5.854;2023-07-31T00:23:19;3.78;;;2.58;;
70228;SDS011;57617;51.988;5.854;2023-07-31T00:25:44;6.80;;;2.45;;
70228;SDS011;57617;51.988;5.854;2023-07-31T00:28:10;2.72;;;2.17;;
70228;SDS011;57617;51.988;5.854;2023-07-31T00:30:35;3.33;;;2.30;;
70228;SDS011;57617;51.988;5.854;2023-07-31T00:33:00;5.18;;;2.22;;
70228;SDS011;57617;51.988;5.854;2023-07-31T00:35:26;3.38;;;2.33;;
70228;SDS011;57617;51.988;5.854;2023-07-31T00:37:51;3.65;;;2.40;;
70228;SDS011;57617;51.988;5.854;2023-07-31T00:40:16;4.50;;;2.50;;
70228;SDS011;57617;51.988;5.854;2023-07-31T00:42:41;3.88;;;2.47;;
70228;SDS011;57617;51.988;5.854;2023-07-31T00:45:07;6.00;;;2.85;;
70228;SDS011;57617;51.988;5.854;2023-07-31T00:47:32;6.10;;;3.03;;
70228;SDS011;57617;51.988;5.854;2023-07-31T00:49:58;9.43;;;3.60;;
70228;SDS011;57617;51.988;5.854;2023-07-31T00:52:23;13.38;;;4.80;;
70228;SDS011;57617;51.988;5.854;2023-07-31T00:54:49;14.18;;;5.15;;
70228;SDS011;57617;51.988;5.854;2023-07-31T00:57:15;18.35;;;6.10;;
70228;SDS011;57617;51.988;5.854;2023-07-31T00:59:40;14.35;;;6.30;;
70228;SDS011;57617;51.988;5.854;2023-07-31T01:02:06;24.27;;;7.20;;
70228;SDS011;57617;51.988;5.854;2023-07-31T01:04:31;30.83;;;8.45;;
70228;SDS011;57617;51.988;5.854;2023-07-31T01:10:07;28.58;;;8.88;;
70228;SDS011;57617;51.988;5.854;2023-07-31T01:12:40;30.38;;;9.20;;
70228;SDS011;57617;51.988;5.854;2023-07-31T01:15:07;28.98;;;10.35;;
70228;SDS011;57617;51.988;5.854;2023-07-31T01:17:37;37.10;;;10.40;;
70228;SDS011;57617;51.988;5.854;2023-07-31T01:20:05;34.58;;;10.05;;
70228;SDS011;57617;51.988;5.854;2023-07-31T01:25:26;34.42;;;9.15;;
70228;SDS011;57617;51.988;5.854;2023-07-31T01:27:59;33.40;;;9.82;;
70228;SDS011;57617;51.988;5.854;2023-07-31T01:30:31;34.58;;;9.68;;
70228;SDS011;57617;51.988;5.854;2023-07-31T01:33:02;39.67;;;10.52;;
70228;SDS011;57617;51.988;5.854;2023-07-31T01:35:36;38.72;;;9.85;;
70228;SDS011;57617;51.988;5.854;2023-07-31T01:38:02;36.15;;;9.30;;
70228;SDS011;57617;51.988;5.854;2023-07-31T01:40:28;37.83;;;9.52;;
70228;SDS011;57617;51.988;5.854;2023-07-31T01:42:53;35.00;;;9.68;;
70228;SDS011;57617;51.988;5.854;2023-07-31T01:45:19;29.30;;;9.27;;
70228;SDS011;57617;51.988;5.854;2023-07-31T01:47:44;31.48;;;9.60;;
70228;SDS011;57617;51.988;5.854;2023-07-31T01:50:09;41.60;;;10.13;;
70228;SDS011;57617;51.988;5.854;2023-07-31T01:52:35;38.90;;;9.80;;
70228;SDS011;57617;51.988;5.854;2023-07-31T01:55:00;32.05;;;9.70;;
70228;SDS011;57617;51.988;5.854;2023-07-31T01:57:26;30.75;;;9.32;;
70228;SDS011;57617;51.988;5.854;2023-07-31T01:59:51;31.73;;;9.30;;
70228;SDS011;57617;51.988;5.854;2023-07-31T02:02:18;31.65;;;9.10;;
70228;SDS011;57617;51.988;5.854;2023-07-31T02:04:43;30.10;;;9.35;;
70228;SDS011;57617;51.988;5.854;2023-07-31T02:07:09;30.70;;;8.85;;
70228;SDS011;57617;51.988;5.854;2023-07-31T02:09:34;37.58;;;9.35;;
70228;SDS011;57617;51.988;5.854;2023-07-31T02:11:59;32.78;;;8.73;;
70228;SDS011;57617;51.988;5.854;2023-07-31T02:14:25;24.52;;;9.40;;
70228;SDS011;57617;51.988;5.854;2023-07-31T02:16:50;34.75;;;8.27;;
70228;SDS011;57617;51.988;5.854;2023-07-31T02:19:15;29.17;;;8.75;;
70228;SDS011;57617;51.988;5.854;2023-07-31T02:21:40;32.80;;;9.32;;
70228;SDS011;57617;51.988;5.854;2023-07-31T02:24:06;27.73;;;8.93;;
70228;SDS011;57617;51.988;5.854;2023-07-31T02:26:31;23.60;;;7.85;;
70228;SDS011;57617;51.988;5.854;2023-07-31T02:28:56;29.88;;;7.80;;
70228;SDS011;57617;51.988;5.854;2023-07-31T02:31:22;24.48;;;8.18;;
70228;SDS011;57617;51.988;5.854;2023-07-31T02:33:47;24.17;;;6.95;;
70228;SDS011;57617;51.988;5.854;2023-07-31T02:36:12;23.58;;;7.25;;
70228;SDS011;57617;51.988;5.854;2023-07-31T02:38:38;23.98;;;6.90;;
70228;SDS011;57617;51.988;5.854;2023-07-31T02:41:03;22.13;;;6.90;;
70228;SDS011;57617;51.988;5.854;2023-07-31T02:43:28;21.85;;;7.35;;
70228;SDS011;57617;51.988;5.854;2023-07-31T02:45:54;23.33;;;6.68;;
70228;SDS011;57617;51.988;5.854;2023-07-31T02:48:19;22.33;;;7.80;;
70228;SDS011;57617;51.988;5.854;2023-07-31T02:50:45;28.02;;;7.95;;
70228;SDS011;57617;51.988;5.854;2023-07-31T02:53:10;21.70;;;7.28;;
70228;SDS011;57617;51.988;5.854;2023-07-31T02:55:36;30.83;;;8.63;;
70228;SDS011;57617;51.988;5.854;2023-07-31T02:58:01;26.08;;;7.65;;
70228;SDS011;57617;51.988;5.854;2023-07-31T03:00:27;32.55;;;7.85;;
70228;SDS011;57617;51.988;5.854;2023-07-31T03:02:52;26.10;;;8.27;;
70228;SDS011;57617;51.988;5.854;2023-07-31T03:05:18;25.80;;;7.57;;
70228;SDS011;57617;51.988;5.854;2023-07-31T03:07:43;29.83;;;6.97;;
70228;SDS011;57617;51.988;5.854;2023-07-31T03:10:08;24.13;;;7.43;;
70228;SDS011;57617;51.988;5.854;2023-07-31T03:12:34;31.77;;;8.10;;
70228;SDS011;57617;51.988;5.854;2023-07-31T03:14:59;26.38;;;7.32;;
70228;SDS011;57617;51.988;5.854;2023-07-31T03:17:24;29.20;;;7.18;;
70228;SDS011;57617;51.988;5.854;2023-07-31T03:19:50;31.17;;;7.78;;
70228;SDS011;57617;51.988;5.854;2023-07-31T03:22:15;27.85;;;8.20;;
70228;SDS011;57617;51.988;5.854;2023-07-31T03:24:40;31.25;;;8.20;;
70228;SDS011;57617;51.988;5.854;2023-07-31T03:27:06;30.67;;;7.63;;
70228;SDS011;57617;51.988;5.854;2023-07-31T03:29:31;33.55;;;7.70;;
70228;SDS011;57617;51.988;5.854;2023-07-31T03:31:56;32.10;;;9.40;;
70228;SDS011;57617;51.988;5.854;2023-07-31T03:34:22;27.13;;;7.65;;
70228;SDS011;57617;51.988;5.854;2023-07-31T03:36:47;23.90;;;7.40;;
70228;SDS011;57617;51.988;5.854;2023-07-31T03:39:12;34.13;;;7.50;;
70228;SDS011;57617;51.988;5.854;2023-07-31T03:41:38;31.63;;;7.15;;
70228;SDS011;57617;51.988;5.854;2023-07-31T03:44:03;24.40;;;6.78;;
70228;SDS011;57617;51.988;5.854;2023-07-31T03:46:28;22.67;;;6.90;;
70228;SDS011;57617;51.988;5.854;2023-07-31T03:48:54;24.38;;;6.55;;
70228;SDS011;57617;51.988;5.854;2023-07-31T03:51:19;27.40;;;8.10;;
70228;SDS011;57617;51.988;5.854;2023-07-31T03:53:44;26.17;;;7.35;;
70228;SDS011;57617;51.988;5.854;2023-07-31T03:56:10;31.63;;;7.00;;
70228;SDS011;57617;51.988;5.854;2023-07-31T03:58:36;22.02;;;6.80;;
70228;SDS011;57617;51.988;5.854;2023-07-31T04:01:01;26.58;;;6.47;;
70228;SDS011;57617;51.988;5.854;2023-07-31T04:03:27;28.90;;;6.95;;
70228;SDS011;57617;51.988;5.854;2023-07-31T04:05:54;24.20;;;6.70;;
70228;SDS011;57617;51.988;5.854;2023-07-31T04:08:20;28.90;;;6.75;;
70228;SDS011;57617;51.988;5.854;2023-07-31T04:10:46;27.83;;;6.88;;
70228;SDS011;57617;51.988;5.854;2023-07-31T04:13:12;21.50;;;6.82;;
70228;SDS011;57617;51.988;5.854;2023-07-31T04:15:37;22.98;;;6.65;;
70228;SDS011;57617;51.988;5.854;2023-07-31T04:18:03;27.15;;;7.50;;
70228;SDS011;57617;51.988;5.854;2023-07-31T04:20:28;28.80;;;7.13;;
70228;SDS011;57617;51.988;5.854;2023-07-31T04:22:53;29.48;;;6.85;;
70228;SDS011;57617;51.988;5.854;2023-07-31T04:25:18;22.40;;;6.57;;
70228;SDS011;57617;51.988;5.854;2023-07-31T04:27:44;26.45;;;7.20;;
70228;SDS011;57617;51.988;5.854;2023-07-31T04:30:09;24.77;;;6.63;;
70228;SDS011;57617;51.988;5.854;2023-07-31T04:32:34;28.70;;;6.43;;
70228;SDS011;57617;51.988;5.854;2023-07-31T04:35:00;20.48;;;6.50;;
70228;SDS011;57617;51.988;5.854;2023-07-31T04:37:26;24.33;;;6.43;;
70228;SDS011;57617;51.988;5.854;2023-07-31T04:39:51;23.20;;;7.05;;
70228;SDS011;57617;51.988;5.854;2023-07-31T04:42:16;22.55;;;6.60;;
70228;SDS011;57617;51.988;5.854;2023-07-31T04:44:42;25.17;;;6.63;;
70228;SDS011;57617;51.988;5.854;2023-07-31T04:47:07;26.30;;;7.28;;
70228;SDS011;57617;51.988;5.854;2023-07-31T04:49:32;24.13;;;7.40;;
70228;SDS011;57617;51.988;5.854;2023-07-31T04:51:58;25.25;;;6.88;;
70228;SDS011;57617;51.988;5.854;2023-07-31T04:54:23;27.85;;;6.78;;
70228;SDS011;57617;51.988;5.854;2023-07-31T04:56:48;25.77;;;6.70;;
70228;SDS011;57617;51.988;5.854;2023-07-31T04:59:14;24.58;;;7.07;;
70228;SDS011;57617;51.988;5.854;2023-07-31T05:01:39;22.35;;;6.93;;
70228;SDS011;57617;51.988;5.854;2023-07-31T05:04:04;22.85;;;7.25;;
70228;SDS011;57617;51.988;5.854;2023-07-31T05:06:30;20.95;;;6.70;;
70228;SDS011;57617;51.988;5.854;2023-07-31T05:08:55;22.75;;;6.60;;
70228;SDS011;57617;51.988;5.854;2023-07-31T05:11:20;20.38;;;7.00;;
70228;SDS011;57617;51.988;5.854;2023-07-31T05:13:46;23.98;;;7.20;;
70228;SDS011;57617;51.988;5.854;2023-07-31T05:16:11;26.55;;;7.38;;
70228;SDS011;57617;51.988;5.854;2023-07-31T05:18:36;22.13;;;7.10;;
70228;SDS011;57617;51.988;5.854;2023-07-31T05:21:02;22.88;;;6.72;;
70228;SDS011;57617;51.988;5.854;2023-07-31T05:23:27;21.20;;;6.80;;
70228;SDS011;57617;51.988;5.854;2023-07-31T05:25:52;22.63;;;6.63;;
70228;SDS011;57617;51.988;5.854;2023-07-31T05:28:18;21.08;;;6.63;;
70228;SDS011;57617;51.988;5.854;2023-07-31T05:30:43;24.52;;;6.65;;
70228;SDS011;57617;51.988;5.854;2023-07-31T05:33:08;20.10;;;6.32;;
70228;SDS011;57617;51.988;5.854;2023-07-31T05:35:34;24.08;;;6.72;;
70228;SDS011;57617;51.988;5.854;2023-07-31T05:37:59;23.90;;;7.05;;
70228;SDS011;57617;51.988;5.854;2023-07-31T05:40:24;17.63;;;6.68;;
70228;SDS011;57617;51.988;5.854;2023-07-31T05:42:50;22.73;;;6.88;;
70228;SDS011;57617;51.988;5.854;2023-07-31T05:45:15;20.67;;;7.05;;
70228;SDS011;57617;51.988;5.854;2023-07-31T05:47:40;19.73;;;7.00;;
70228;SDS011;57617;51.988;5.854;2023-07-31T05:50:06;22.08;;;7.03;;
70228;SDS011;57617;51.988;5.854;2023-07-31T05:52:32;32.75;;;7.25;;
70228;SDS011;57617;51.988;5.854;2023-07-31T05:54:58;18.55;;;6.75;;
70228;SDS011;57617;51.988;5.854;2023-07-31T05:57:23;22.30;;;6.93;;
70228;SDS011;57617;51.988;5.854;2023-07-31T05:59:48;21.63;;;6.55;;
70228;SDS011;57617;51.988;5.854;2023-07-31T06:02:14;22.63;;;6.60;;
70228;SDS011;57617;51.988;5.854;2023-07-31T06:04:39;20.58;;;6.38;;
70228;SDS011;57617;51.988;5.854;2023-07-31T06:07:04;23.38;;;6.72;;
70228;SDS011;57617;51.988;5.854;2023-07-31T06:09:30;23.35;;;6.68;;
70228;SDS011;57617;51.988;5.854;2023-07-31T06:11:56;23.20;;;6.85;;
70228;SDS011;57617;51.988;5.854;2023-07-31T06:14:21;20.75;;;6.10;;
70228;SDS011;57617;51.988;5.854;2023-07-31T06:16:46;22.40;;;6.85;;
70228;SDS011;57617;51.988;5.854;2023-07-31T06:19:12;22.38;;;6.38;;
70228;SDS011;57617;51.988;5.854;2023-07-31T06:21:37;19.83;;;6.15;;
70228;SDS011;57617;51.988;5.854;2023-07-31T06:24:04;24.38;;;6.45;;
70228;SDS011;57617;51.988;5.854;2023-07-31T06:26:30;22.48;;;6.30;;
70228;SDS011;57617;51.988;5.854;2023-07-31T06:28:56;24.80;;;6.63;;
70228;SDS011;57617;51.988;5.854;2023-07-31T06:31:21;20.48;;;6.13;;
70228;SDS011;57617;51.988;5.854;2023-07-31T06:33:48;17.08;;;5.55;;
70228;SDS011;57617;51.988;5.854;2023-07-31T06:36:14;20.83;;;6.43;;
70228;SDS011;57617;51.988;5.854;2023-07-31T06:38:39;18.40;;;5.85;;
70228;SDS011;57617;51.988;5.854;2023-07-31T06:41:05;17.60;;;5.32;;
70228;SDS011;57617;51.988;5.854;2023-07-31T06:43:30;18.45;;;5.70;;
70228;SDS011;57617;51.988;5.854;2023-07-31T06:45:56;18.98;;;5.82;;
70228;SDS011;57617;51.988;5.854;2023-07-31T06:48:21;17.63;;;5.60;;
70228;SDS011;57617;51.988;5.854;2023-07-31T06:50:46;18.80;;;5.57;;
70228;SDS011;57617;51.988;5.854;2023-07-31T06:53:12;16.20;;;6.22;;
70228;SDS011;57617;51.988;5.854;2023-07-31T06:55:37;12.93;;;5.65;;
70228;SDS011;57617;51.988;5.854;2023-07-31T06:58:02;12.80;;;5.18;;
70228;SDS011;57617;51.988;5.854;2023-07-31T07:00:28;12.68;;;5.03;;
70228;SDS011;57617;51.988;5.854;2023-07-31T07:02:53;13.85;;;4.85;;
70228;SDS011;57617;51.988;5.854;2023-07-31T07:05:19;11.57;;;4.82;;
70228;SDS011;57617;51.988;5.854;2023-07-31T07:07:44;11.05;;;4.35;;
70228;SDS011;57617;51.988;5.854;2023-07-31T07:10:10;13.40;;;4.15;;
70228;SDS011;57617;51.988;5.854;2023-07-31T07:12:35;10.73;;;3.67;;
70228;SDS011;57617;51.988;5.854;2023-07-31T07:15:01;9.27;;;3.83;;
70228;SDS011;57617;51.988;5.854;2023-07-31T07:17:28;8.98;;;3.72;;
70228;SDS011;57617;51.988;5.854;2023-07-31T07:19:56;8.30;;;3.65;;
70228;SDS011;57617;51.988;5.854;2023-07-31T07:22:21;7.88;;;3.35;;
70228;SDS011;57617;51.988;5.854;2023-07-31T07:24:46;6.55;;;3.17;;
70228;SDS011;57617;51.988;5.854;2023-07-31T07:27:12;8.02;;;3.40;;
70228;SDS011;57617;51.988;5.854;2023-07-31T07:29:37;5.78;;;2.67;;
70228;SDS011;57617;51.988;5.854;2023-07-31T07:32:03;6.55;;;3.08;;
70228;SDS011;57617;51.988;5.854;2023-07-31T07:34:29;5.85;;;2.88;;
70228;SDS011;57617;51.988;5.854;2023-07-31T07:36:54;6.85;;;2.90;;
70228;SDS011;57617;51.988;5.854;2023-07-31T07:39:20;6.07;;;3.08;;
70228;SDS011;57617;51.988;5.854;2023-07-31T07:41:45;5.22;;;2.75;;
70228;SDS011;57617;51.988;5.854;2023-07-31T07:44:11;10.98;;;2.80;;
70228;SDS011;57617;51.988;5.854;2023-07-31T07:46:37;5.80;;;2.63;;
70228;SDS011;57617;51.988;5.854;2023-07-31T07:49:02;5.63;;;2.50;;
70228;SDS011;57617;51.988;5.854;2023-07-31T07:51:27;6.03;;;2.58;;
70228;SDS011;57617;51.988;5.854;2023-07-31T07:53:55;5.85;;;2.65;;
70228;SDS011;57617;51.988;5.854;2023-07-31T07:56:21;4.90;;;2.17;;
70228;SDS011;57617;51.988;5.854;2023-07-31T07:58:48;4.57;;;2.63;;
70228;SDS011;57617;51.988;5.854;2023-07-31T08:01:14;4.85;;;2.10;;
70228;SDS011;57617;51.988;5.854;2023-07-31T08:03:39;8.13;;;2.38;;
70228;SDS011;57617;51.988;5.854;2023-07-31T08:06:05;5.15;;;2.30;;
70228;SDS011;57617;51.988;5.854;2023-07-31T08:08:30;3.33;;;2.20;;
70228;SDS011;57617;51.988;5.854;2023-07-31T08:10:55;3.17;;;2.05;;
70228;SDS011;57617;51.988;5.854;2023-07-31T08:13:21;4.30;;;2.45;;
70228;SDS011;57617;51.988;5.854;2023-07-31T08:15:46;5.60;;;2.38;;
70228;SDS011;57617;51.988;5.854;2023-07-31T08:18:11;4.47;;;2.40;;
70228;SDS011;57617;51.988;5.854;2023-07-31T08:20:37;6.53;;;2.50;;
70228;SDS011;57617;51.988;5.854;2023-07-31T08:23:02;5.50;;;2.70;;
70228;SDS011;57617;51.988;5.854;2023-07-31T08:25:28;4.75;;;2.70;;
70228;SDS011;57617;51.988;5.854;2023-07-31T08:27:53;6.18;;;3.08;;
70228;SDS011;57617;51.988;5.854;2023-07-31T08:30:19;6.05;;;3.50;;
70228;SDS011;57617;51.988;5.854;2023-07-31T08:32:44;12.85;;;3.72;;
70228;SDS011;57617;51.988;5.854;2023-07-31T08:35:10;5.13;;;3.42;;
70228;SDS011;57617;51.988;5.854;2023-07-31T08:37:35;11.75;;;3.80;;
70228;SDS011;57617;51.988;5.854;2023-07-31T08:40:03;6.20;;;4.03;;
70228;SDS011;57617;51.988;5.854;2023-07-31T08:42:29;6.10;;;3.63;;
70228;SDS011;57617;51.988;5.854;2023-07-31T08:44:55;8.10;;;4.03;;
70228;SDS011;57617;51.988;5.854;2023-07-31T08:47:21;6.75;;;3.40;;
70228;SDS011;57617;51.988;5.854;2023-07-31T08:49:48;6.55;;;4.00;;
70228;SDS011;57617;51.988;5.854;2023-07-31T08:52:14;7.25;;;4.18;;
70228;SDS011;57617;51.988;5.854;2023-07-31T08:54:39;8.00;;;4.18;;
70228;SDS011;57617;51.988;5.854;2023-07-31T08:57:05;8.13;;;4.10;;
70228;SDS011;57617;51.988;5.854;2023-07-31T08:59:31;8.00;;;4.00;;
70228;SDS011;57617;51.988;5.854;2023-07-31T09:02:02;9.80;;;4.45;;
70228;SDS011;57617;51.988;5.854;2023-07-31T09:04:30;8.02;;;4.82;;
70228;SDS011;57617;51.988;5.854;2023-07-31T09:06:57;9.20;;;4.90;;
70228;SDS011;57617;51.988;5.854;2023-07-31T09:09:25;8.20;;;4.78;;
70228;SDS011;57617;51.988;5.854;2023-07-31T09:11:51;6.68;;;4.22;;
70228;SDS011;57617;51.988;5.854;2023-07-31T09:14:17;10.98;;;5.13;;
70228;SDS011;57617;51.988;5.854;2023-07-31T09:16:56;8.10;;;4.40;;
70228;SDS011;57617;51.988;5.854;2023-07-31T09:19:32;8.60;;;4.47;;
70228;SDS011;57617;51.988;5.854;2023-07-31T09:21:59;9.10;;;4.95;;
70228;SDS011;57617;51.988;5.854;2023-07-31T09:24:25;9.15;;;5.38;;
70228;SDS011;57617;51.988;5.854;2023-07-31T09:26:53;11.00;;;5.70;;
70228;SDS011;57617;51.988;5.854;2023-07-31T09:29:20;12.95;;;6.30;;
70228;SDS011;57617;51.988;5.854;2023-07-31T09:31:45;11.43;;;6.28;;
70228;SDS011;57617;51.988;5.854;2023-07-31T09:34:11;11.93;;;6.60;;
70228;SDS011;57617;51.988;5.854;2023-07-31T09:36:43;12.65;;;6.93;;
70228;SDS011;57617;51.988;5.854;2023-07-31T09:39:10;14.35;;;7.18;;
70228;SDS011;57617;51.988;5.854;2023-07-31T09:41:40;12.52;;;7.00;;
70228;SDS011;57617;51.988;5.854;2023-07-31T09:44:07;15.25;;;7.80;;
70228;SDS011;57617;51.988;5.854;2023-07-31T09:46:34;14.15;;;7.82;;
70228;SDS011;57617;51.988;5.854;2023-07-31T09:49:10;17.58;;;7.90;;
70228;SDS011;57617;51.988;5.854;2023-07-31T09:51:41;19.55;;;8.63;;
70228;SDS011;57617;51.988;5.854;2023-07-31T09:54:13;15.82;;;8.75;;
70228;SDS011;57617;51.988;5.854;2023-07-31T09:56:44;24.17;;;10.18;;
70228;SDS011;57617;51.988;5.854;2023-07-31T09:59:14;16.92;;;9.60;;
70228;SDS011;57617;51.988;5.854;2023-07-31T10:01:41;18.63;;;10.18;;
70228;SDS011;57617;51.988;5.854;2023-07-31T10:04:08;18.73;;;9.77;;
70228;SDS011;57617;51.988;5.854;2023-07-31T10:06:35;19.27;;;10.10;;
70228;SDS011;57617;51.988;5.854;2023-07-31T10:09:02;21.05;;;10.68;;
70228;SDS011;57617;51.988;5.854;2023-07-31T10:11:29;16.42;;;10.18;;
70228;SDS011;57617;51.988;5.854;2023-07-31T10:13:58;20.83;;;10.70;;
70228;SDS011;57617;51.988;5.854;2023-07-31T10:16:24;19.08;;;10.82;;
70228;SDS011;57617;51.988;5.854;2023-07-31T10:18:50;18.67;;;10.80;;
70228;SDS011;57617;51.988;5.854;2023-07-31T10:21:17;20.35;;;10.82;;
70228;SDS011;57617;51.988;5.854;2023-07-31T10:23:43;20.30;;;10.82;;
70228;SDS011;57617;51.988;5.854;2023-07-31T10:26:09;25.23;;;11.10;;
70228;SDS011;57617;51.988;5.854;2023-07-31T10:28:36;21.58;;;11.18;;
70228;SDS011;57617;51.988;5.854;2023-07-31T10:31:02;28.13;;;11.35;;
70228;SDS011;57617;51.988;5.854;2023-07-31T10:33:29;21.58;;;11.15;;
70228;SDS011;57617;51.988;5.854;2023-07-31T10:36:17;28.02;;;12.32;;
70228;SDS011;57617;51.988;5.854;2023-07-31T10:38:46;21.10;;;11.48;;
70228;SDS011;57617;51.988;5.854;2023-07-31T10:41:14;19.27;;;11.68;;
70228;SDS011;57617;51.988;5.854;2023-07-31T10:43:39;21.55;;;12.18;;
70228;SDS011;57617;51.988;5.854;2023-07-31T10:46:12;20.73;;;12.13;;
70228;SDS011;57617;51.988;5.854;2023-07-31T10:48:39;20.60;;;12.15;;
70228;SDS011;57617;51.988;5.854;2023-07-31T10:51:09;22.35;;;12.90;;
70228;SDS011;57617;51.988;5.854;2023-07-31T10:53:36;23.52;;;12.75;;
70228;SDS011;57617;51.988;5.854;2023-07-31T10:56:03;24.42;;;12.55;;
70228;SDS011;57617;51.988;5.854;2023-07-31T10:58:30;23.52;;;12.60;;
70228;SDS011;57617;51.988;5.854;2023-07-31T11:00:58;23.15;;;12.77;;
70228;SDS011;57617;51.988;5.854;2023-07-31T11:03:45;20.23;;;11.90;;
70228;SDS011;57617;51.988;5.854;2023-07-31T11:06:11;21.58;;;12.13;;
70228;SDS011;57617;51.988;5.854;2023-07-31T11:08:41;20.42;;;11.63;;
70228;SDS011;57617;51.988;5.854;2023-07-31T11:11:09;21.92;;;11.40;;
70228;SDS011;57617;51.988;5.854;2023-07-31T11:14:08;19.00;;;11.70;;
70228;SDS011;57617;51.988;5.854;2023-07-31T11:16:26;21.85;;;11.02;;
70228;SDS011;57617;51.988;5.854;2023-07-31T11:18:52;22.77;;;11.30;;
70228;SDS011;57617;51.988;5.854;2023-07-31T11:21:19;23.02;;;11.93;;
70228;SDS011;57617;51.988;5.854;2023-07-31T11:23:46;20.13;;;10.98;;
70228;SDS011;57617;51.988;5.854;2023-07-31T11:26:13;20.02;;;11.35;;
70228;SDS011;57617;51.988;5.854;2023-07-31T11:28:39;21.52;;;10.40;;
70228;SDS011;57617;51.988;5.854;2023-07-31T11:31:08;22.60;;;11.50;;
70228;SDS011;57617;51.988;5.854;2023-07-31T11:33:34;18.52;;;10.73;;
70228;SDS011;57617;51.988;5.854;2023-07-31T11:35:59;20.48;;;11.50;;
70228;SDS011;57617;51.988;5.854;2023-07-31T11:38:31;20.58;;;10.82;;
70228;SDS011;57617;51.988;5.854;2023-07-31T11:41:02;20.08;;;10.50;;
70228;SDS011;57617;51.988;5.854;2023-07-31T11:43:28;18.83;;;10.60;;
70228;SDS011;57617;51.988;5.854;2023-07-31T11:45:55;18.17;;;10.18;;
70228;SDS011;57617;51.988;5.854;2023-07-31T11:48:22;17.77;;;10.98;;
70228;SDS011;57617;51.988;5.854;2023-07-31T11:50:49;21.50;;;10.75;;
70228;SDS011;57617;51.988;5.854;2023-07-31T11:53:23;17.42;;;9.88;;
70228;SDS011;57617;51.988;5.854;2023-07-31T11:55:57;21.27;;;10.50;;
70228;SDS011;57617;51.988;5.854;2023-07-31T11:58:24;18.35;;;10.13;;
70228;SDS011;57617;51.988;5.854;2023-07-31T12:00:50;22.77;;;10.75;;
70228;SDS011;57617;51.988;5.854;2023-07-31T12:03:16;20.25;;;11.40;;
70228;SDS011;57617;51.988;5.854;2023-07-31T12:05:43;21.55;;;11.23;;
70228;SDS011;57617;51.988;5.854;2023-07-31T12:08:09;19.15;;;10.15;;
70228;SDS011;57617;51.988;5.854;2023-07-31T12:10:36;18.17;;;10.02;;
70228;SDS011;57617;51.988;5.854;2023-07-31T12:13:03;17.88;;;10.07;;
70228;SDS011;57617;51.988;5.854;2023-07-31T12:15:34;17.60;;;9.85;;
70228;SDS011;57617;51.988;5.854;2023-07-31T12:18:06;15.07;;;9.32;;
70228;SDS011;57617;51.988;5.854;2023-07-31T12:20:42;16.23;;;9.18;;
70228;SDS011;57617;51.988;5.854;2023-07-31T12:23:18;17.50;;;9.40;;
70228;SDS011;57617;51.988;5.854;2023-07-31T12:26:12;17.05;;;9.82;;
70228;SDS011;57617;51.988;5.854;2023-07-31T12:28:40;15.70;;;9.52;;
70228;SDS011;57617;51.988;5.854;2023-07-31T12:31:10;13.52;;;9.15;;
70228;SDS011;57617;51.988;5.854;2023-07-31T12:33:38;26.15;;;9.93;;
70228;SDS011;57617;51.988;5.854;2023-07-31T12:36:07;18.40;;;9.57;;
70228;SDS011;57617;51.988;5.854;2023-07-31T12:38:34;15.05;;;9.07;;
70228;SDS011;57617;51.988;5.854;2023-07-31T12:40:59;16.88;;;8.82;;
70228;SDS011;57617;51.988;5.854;2023-07-31T12:43:25;15.75;;;9.15;;
70228;SDS011;57617;51.988;5.854;2023-07-31T12:45:50;16.83;;;9.38;;
70228;SDS011;57617;51.988;5.854;2023-07-31T12:48:16;23.63;;;9.57;;
70228;SDS011;57617;51.988;5.854;2023-07-31T12:50:41;20.58;;;9.60;;
70228;SDS011;57617;51.988;5.854;2023-07-31T12:53:06;17.13;;;9.35;;
70228;SDS011;57617;51.988;5.854;2023-07-31T12:55:32;15.40;;;9.20;;
70228;SDS011;57617;51.988;5.854;2023-07-31T12:58:01;14.85;;;8.73;;
70228;SDS011;57617;51.988;5.854;2023-07-31T13:00:27;17.92;;;9.32;;
70228;SDS011;57617;51.988;5.854;2023-07-31T13:02:52;15.93;;;9.50;;
70228;SDS011;57617;51.988;5.854;2023-07-31T13:05:18;15.57;;;9.20;;
70228;SDS011;57617;51.988;5.854;2023-07-31T13:07:45;17.13;;;9.35;;
70228;SDS011;57617;51.988;5.854;2023-07-31T13:10:11;21.23;;;9.90;;
70228;SDS011;57617;51.988;5.854;2023-07-31T13:12:36;16.35;;;9.25;;
70228;SDS011;57617;51.988;5.854;2023-07-31T13:15:02;16.13;;;9.02;;
70228;SDS011;57617;51.988;5.854;2023-07-31T13:17:28;18.05;;;9.23;;
70228;SDS011;57617;51.988;5.854;2023-07-31T13:19:53;18.90;;;9.50;;
70228;SDS011;57617;51.988;5.854;2023-07-31T13:22:19;15.55;;;8.65;;
70228;SDS011;57617;51.988;5.854;2023-07-31T13:24:44;18.45;;;8.98;;
70228;SDS011;57617;51.988;5.854;2023-07-31T13:27:09;16.40;;;8.65;;
70228;SDS011;57617;51.988;5.854;2023-07-31T13:29:35;20.27;;;9.60;;
70228;SDS011;57617;51.988;5.854;2023-07-31T13:32:00;19.20;;;9.85;;
70228;SDS011;57617;51.988;5.854;2023-07-31T13:34:25;15.38;;;9.20;;
70228;SDS011;57617;51.988;5.854;2023-07-31T13:36:51;16.88;;;8.85;;
70228;SDS011;57617;51.988;5.854;2023-07-31T13:39:16;17.38;;;8.35;;
70228;SDS011;57617;51.988;5.854;2023-07-31T13:41:41;13.65;;;8.73;;
70228;SDS011;57617;51.988;5.854;2023-07-31T13:44:06;16.08;;;8.43;;
70228;SDS011;57617;51.988;5.854;2023-07-31T13:46:32;15.32;;;8.48;;
70228;SDS011;57617;51.988;5.854;2023-07-31T13:48:58;13.90;;;8.02;;
70228;SDS011;57617;51.988;5.854;2023-07-31T13:51:24;18.48;;;8.30;;
70228;SDS011;57617;51.988;5.854;2023-07-31T13:53:50;15.10;;;8.40;;
70228;SDS011;57617;51.988;5.854;2023-07-31T13:56:15;17.27;;;9.07;;
70228;SDS011;57617;51.988;5.854;2023-07-31T13:58:40;14.07;;;8.38;;
70228;SDS011;57617;51.988;5.854;2023-07-31T14:01:06;16.20;;;8.13;;
70228;SDS011;57617;51.988;5.854;2023-07-31T14:03:31;16.77;;;8.15;;
70228;SDS011;57617;51.988;5.854;2023-07-31T14:05:56;16.45;;;8.60;;
70228;SDS011;57617;51.988;5.854;2023-07-31T14:08:22;15.02;;;8.50;;
70228;SDS011;57617;51.988;5.854;2023-07-31T14:10:47;18.48;;;8.80;;
70228;SDS011;57617;51.988;5.854;2023-07-31T14:13:12;16.60;;;8.73;;
70228;SDS011;57617;51.988;5.854;2023-07-31T14:15:39;18.83;;;8.70;;
70228;SDS011;57617;51.988;5.854;2023-07-31T14:18:06;17.15;;;8.63;;
70228;SDS011;57617;51.988;5.854;2023-07-31T14:20:31;14.30;;;7.88;;
70228;SDS011;57617;51.988;5.854;2023-07-31T14:22:57;18.35;;;8.73;;
70228;SDS011;57617;51.988;5.854;2023-07-31T14:25:22;19.90;;;8.65;;
70228;SDS011;57617;51.988;5.854;2023-07-31T14:27:48;16.52;;;8.68;;
70228;SDS011;57617;51.988;5.854;2023-07-31T14:30:13;21.60;;;9.18;;
70228;SDS011;57617;51.988;5.854;2023-07-31T14:32:38;21.80;;;8.63;;
70228;SDS011;57617;51.988;5.854;2023-07-31T14:35:04;17.85;;;8.38;;
70228;SDS011;57617;51.988;5.854;2023-07-31T14:37:42;16.90;;;8.23;;